Time;durP1;ratioP1;P1;durP2;ratioP2;P2;SDS_P1;SDS_P2;PMS_P1;PMS_P2;Temp;Humidity;BMP_temperature;BMP_pressure;BME280_temperature;BME280_humidity;BME280_pressure;Samples;Min_cycle;Max_cycle;Signal;HPM_P1;HPM_P2
2022/06/27 00:04:15;;;;;;;11.43;3.35;;;;;;;;;;10273114;28;20061;-68
2022/06/27 00:09:15;;;;;;;6.30;3.38;;;;;;;;;;10275823;28;20042;-74
2022/06/27 00:14:16;;;;;;;4.57;3.65;;;;;;;;;;10274253;28;20468;-70
2022/06/27 00:19:17;;;;;;;7.57;4.18;;;;;;;;;;10273504;28;20045;-74
2022/06/27 00:24:17;;;;;;;4.30;3.50;;;;;;;;;;10273297;28;20109;-74
2022/06/27 00:29:17;;;;;;;4.20;3.80;;;;;;;;;;10273810;28;20698;-73
2022/06/27 00:34:18;;;;;;;5.67;3.57;;;;;;;;;;10283947;28;20091;-69
2022/06/27 00:39:18;;;;;;;10.10;4.43;;;;;;;;;;10279862;28;20823;-72
2022/06/27 00:44:32;;;;;;;6.87;4.40;;;;;;;;;;10282164;28;20010;-74
2022/06/27 00:49:33;;;;;;;9.95;4.65;;;;;;;;;;10285860;28;20077;-74
2022/06/27 00:54:35;;;;;;;10.15;5.88;;;;;;;;;;10289670;28;20022;-70
2022/06/27 00:59:35;;;;;;;8.85;5.47;;;;;;;;;;10287735;28;20106;-70
2022/06/27 01:04:36;;;;;;;8.07;5.00;;;;;;;;;;10282567;28;20124;-77
2022/06/27 01:09:37;;;;;;;9.25;5.93;;;;;;;;;;10289334;28;20084;-70
2022/06/27 01:14:37;;;;;;;7.70;5.53;;;;;;;;;;10286529;28;20037;-72
2022/06/27 01:19:39;;;;;;;10.05;6.72;;;;;;;;;;10285316;28;20377;-72
2022/06/27 01:24:39;;;;;;;11.25;6.63;;;;;;;;;;10287160;28;20563;-69
2022/06/27 01:29:39;;;;;;;15.90;7.18;;;;;;;;;;10289225;28;20042;-75
2022/06/27 01:34:40;;;;;;;12.55;6.63;;;;;;;;;;10283836;28;20026;-68
2022/06/27 01:39:40;;;;;;;13.07;6.60;;;;;;;;;;10298062;28;20023;-69
2022/06/27 01:44:40;;;;;;;8.75;4.55;;;;;;;;;;10270026;28;20081;-69
2022/06/27 01:49:41;;;;;;;7.93;5.35;;;;;;;;;;10272261;28;20030;-70
2022/06/27 01:54:42;;;;;;;7.00;4.72;;;;;;;;;;10271607;28;20455;-73
2022/06/27 01:59:42;;;;;;;7.82;4.65;;;;;;;;;;10306216;28;20023;-73
2022/06/27 02:04:43;;;;;;;10.10;5.40;;;;;;;;;;10283960;28;20497;-68
2022/06/27 02:09:44;;;;;;;9.83;5.70;;;;;;;;;;10274724;28;20046;-72
2022/06/27 02:14:48;;;;;;;9.98;6.22;;;;;;;;;;10278726;28;20481;-72
2022/06/27 02:19:49;;;;;;;7.55;5.57;;;;;;;;;;10281584;28;20512;-73
2022/06/27 02:24:49;;;;;;;9.27;5.63;;;;;;;;;;10316939;28;20105;-74
2022/06/27 02:29:49;;;;;;;8.07;5.68;;;;;;;;;;10462726;22;20662;-74
2022/06/27 02:34:50;;;;;;;9.25;5.18;;;;;;;;;;10444491;28;20025;-69
2022/06/27 02:39:52;;;;;;;18.08;5.57;;;;;;;;;;10442563;28;20426;-73
2022/06/27 02:44:52;;;;;;;8.02;6.00;;;;;;;;;;10444843;28;20021;-74
2022/06/27 02:49:53;;;;;;;9.25;5.35;;;;;;;;;;10453199;28;20286;-73
2022/06/27 02:54:58;;;;;;;8.07;5.43;;;;;;;;;;10442590;28;20021;-72
2022/06/27 03:00:00;;;;;;;8.88;6.28;;;;;;;;;;10442666;28;20043;-73
2022/06/27 03:05:00;;;;;;;11.65;6.75;;;;;;;;;;10406739;28;20078;-72
2022/06/27 03:10:01;;;;;;;10.83;5.97;;;;;;;;;;10401353;28;20075;-73
2022/06/27 03:15:02;;;;;;;10.70;6.20;;;;;;;;;;10402102;28;20036;-75
2022/06/27 03:20:02;;;;;;;9.27;5.72;;;;;;;;;;10399640;28;20053;-74
2022/06/27 03:25:02;;;;;;;7.27;4.97;;;;;;;;;;10402520;28;20029;-74
2022/06/27 03:30:03;;;;;;;6.93;4.70;;;;;;;;;;10383749;28;20507;-73
2022/06/27 03:35:03;;;;;;;9.18;4.97;;;;;;;;;;10400766;28;20276;-74
2022/06/27 03:40:04;;;;;;;5.78;4.32;;;;;;;;;;10399951;28;20129;-69
2022/06/27 03:45:04;;;;;;;7.00;5.40;;;;;;;;;;10400074;28;20014;-73
2022/06/27 03:50:05;;;;;;;5.65;5.05;;;;;;;;;;10399412;28;20455;-68
2022/06/27 03:55:07;;;;;;;9.15;4.82;;;;;;;;;;10399777;28;20053;-70
2022/06/27 04:00:10;;;;;;;10.43;5.32;;;;;;;;;;10399041;28;20454;-74
2022/06/27 04:05:11;;;;;;;10.20;5.03;;;;;;;;;;10398918;28;20540;-73
2022/06/27 04:10:12;;;;;;;9.00;5.67;;;;;;;;;;10398787;28;20026;-74
2022/06/27 04:15:12;;;;;;;7.47;4.93;;;;;;;;;;10399815;28;20279;-74
2022/06/27 04:20:12;;;;;;;8.52;5.07;;;;;;;;;;10398399;28;20029;-71
2022/06/27 04:25:13;;;;;;;8.48;4.88;;;;;;;;;;10397938;28;20068;-70
2022/06/27 04:30:16;;;;;;;5.50;3.85;;;;;;;;;;10397588;28;20053;-74
2022/06/27 04:35:17;;;;;;;5.82;3.92;;;;;;;;;;10397508;28;20132;-70
2022/06/27 04:40:20;;;;;;;5.25;3.45;;;;;;;;;;10396854;28;20029;-74
2022/06/27 04:45:21;;;;;;;9.20;4.25;;;;;;;;;;10397514;28;20029;-74
2022/06/27 04:50:22;;;;;;;7.90;3.85;;;;;;;;;;10397288;28;20095;-72
2022/06/27 04:55:24;;;;;;;9.35;4.75;;;;;;;;;;10398452;28;20035;-73
2022/06/27 05:00:24;;;;;;;12.23;4.13;;;;;;;;;;10445582;22;20542;-70
2022/06/27 05:05:24;;;;;;;10.68;4.80;;;;;;;;;;10437476;28;20032;-74
2022/06/27 05:10:25;;;;;;;13.65;4.22;;;;;;;;;;10437676;28;20410;-72
2022/06/27 05:15:25;;;;;;;9.13;4.15;;;;;;;;;;10437361;28;20094;-74
2022/06/27 05:20:27;;;;;;;12.18;4.93;;;;;;;;;;10439266;28;20033;-72
2022/06/27 05:25:27;;;;;;;9.70;4.95;;;;;;;;;;10437087;28;20114;-74
2022/06/27 05:30:28;;;;;;;11.98;4.88;;;;;;;;;;10437295;28;20168;-76
2022/06/27 05:35:29;;;;;;;8.38;5.30;;;;;;;;;;10436298;28;20051;-76
2022/06/27 05:40:30;;;;;;;8.55;4.80;;;;;;;;;;10436405;28;20097;-68
2022/06/27 05:45:30;;;;;;;5.80;4.10;;;;;;;;;;10435991;28;20024;-71
2022/06/27 05:50:30;;;;;;;14.70;4.85;;;;;;;;;;10437105;28;20317;-73
2022/06/27 05:55:32;;;;;;;13.40;5.03;;;;;;;;;;10436541;28;20514;-74
2022/06/27 06:00:33;;;;;;;7.63;4.05;;;;;;;;;;10435641;28;20052;-75
2022/06/27 06:05:34;;;;;;;7.10;4.47;;;;;;;;;;10435872;28;20434;-77
2022/06/27 06:10:35;;;;;;;7.35;4.97;;;;;;;;;;10437339;28;20020;-70
2022/06/27 06:15:38;;;;;;;10.60;4.83;;;;;;;;;;10436302;28;20493;-72
2022/06/27 06:20:38;;;;;;;8.40;4.57;;;;;;;;;;10436119;28;20114;-78
2022/06/27 06:25:38;;;;;;;7.90;5.40;;;;;;;;;;10435791;28;20098;-72
2022/06/27 06:30:39;;;;;;;11.57;6.17;;;;;;;;;;10437733;28;20025;-76
2022/06/27 06:35:39;;;;;;;13.18;5.47;;;;;;;;;;10435784;28;20670;-71
2022/06/27 06:40:39;;;;;;;12.32;5.45;;;;;;;;;;10435525;28;20013;-69
2022/06/27 06:45:40;;;;;;;10.70;6.25;;;;;;;;;;10435063;28;20074;-70
2022/06/27 06:50:41;;;;;;;9.82;5.00;;;;;;;;;;10445064;28;20021;-73
2022/06/27 06:55:42;;;;;;;8.90;4.30;;;;;;;;;;10442845;28;20021;-72
2022/06/27 07:00:43;;;;;;;9.30;4.60;;;;;;;;;;10442842;28;20084;-72
2022/06/27 07:05:44;;;;;;;12.07;4.30;;;;;;;;;;10444484;28;20557;-74
2022/06/27 07:10:45;;;;;;;7.93;3.70;;;;;;;;;;10442438;28;20021;-70
2022/06/27 07:15:45;;;;;;;9.83;4.67;;;;;;;;;;10443792;28;20025;-72
2022/06/27 07:20:46;;;;;;;3.97;2.90;;;;;;;;;;10443824;28;20621;-74
2022/06/27 07:25:47;;;;;;;8.82;3.92;;;;;;;;;;10435112;28;20321;-70
2022/06/27 07:30:49;;;;;;;5.60;3.43;;;;;;;;;;10441635;28;20159;-75
2022/06/27 07:35:50;;;;;;;7.65;3.22;;;;;;;;;;10442666;28;20096;-70
2022/06/27 07:40:50;;;;;;;7.07;3.15;;;;;;;;;;10437134;28;20035;-69
2022/06/27 07:45:51;;;;;;;4.85;3.30;;;;;;;;;;10441813;28;20556;-74
2022/06/27 07:50:51;;;;;;;8.77;3.42;;;;;;;;;;10440744;28;20029;-74
2022/06/27 07:55:53;;;;;;;3.63;2.60;;;;;;;;;;10441308;28;20040;-74
2022/06/27 08:00:53;;;;;;;6.53;2.97;;;;;;;;;;10439908;28;20295;-74
2022/06/27 08:05:53;;;;;;;5.27;2.63;;;;;;;;;;10441387;28;20021;-74
2022/06/27 08:10:54;;;;;;;5.72;2.38;;;;;;;;;;10440444;28;20017;-72
2022/06/27 08:15:55;;;;;;;5.15;2.95;;;;;;;;;;10440806;28;20049;-70
2022/06/27 08:20:55;;;;;;;5.32;2.60;;;;;;;;;;10440307;28;20017;-74
2022/06/27 08:25:55;;;;;;;2.80;1.85;;;;;;;;;;10440220;28;20550;-73
2022/06/27 08:31:01;;;;;;;4.90;2.50;;;;;;;;;;10439625;28;20100;-74
2022/06/27 08:36:02;;;;;;;7.20;2.38;;;;;;;;;;10439741;28;20021;-74
2022/06/27 08:41:03;;;;;;;2.65;1.65;;;;;;;;;;10437980;28;20021;-76
2022/06/27 08:46:04;;;;;;;6.20;2.70;;;;;;;;;;10439105;28;20499;-72
2022/06/27 08:51:06;;;;;;;3.35;1.65;;;;;;;;;;10438912;28;20024;-70
2022/06/27 08:56:09;;;;;;;4.25;2.17;;;;;;;;;;10438704;28;20032;-74
2022/06/27 09:01:10;;;;;;;5.35;2.38;;;;;;;;;;10439824;28;20517;-73
2022/06/27 09:06:10;;;;;;;3.80;2.47;;;;;;;;;;10439055;28;20027;-69
2022/06/27 09:11:25;;;;;;;2.72;2.00;;;;;;;;;;10437856;28;20517;-73
2022/06/27 09:16:26;;;;;;;3.40;2.10;;;;;;;;;;10438734;28;20443;-75
2022/06/27 09:21:27;;;;;;;7.13;2.45;;;;;;;;;;10438022;28;20020;-71
2022/06/27 09:26:31;;;;;;;3.67;2.22;;;;;;;;;;10438282;28;20017;-75
2022/06/27 09:31:33;;;;;;;4.88;2.20;;;;;;;;;;10437555;28;20609;-73
2022/06/27 09:36:35;;;;;;;3.38;2.10;;;;;;;;;;10437674;28;20021;-76
2022/06/27 09:41:36;;;;;;;8.60;2.25;;;;;;;;;;10435920;28;20032;-73
2022/06/27 09:46:42;;;;;;;7.13;2.00;;;;;;;;;;10437326;28;20436;-76
2022/06/27 09:51:43;;;;;;;4.32;1.80;;;;;;;;;;10436965;28;20117;-76
2022/06/27 09:56:45;;;;;;;6.28;2.90;;;;;;;;;;10437051;28;20021;-69
2022/06/27 10:01:45;;;;;;;4.32;2.50;;;;;;;;;;10419604;28;20095;-74
2022/06/27 10:06:46;;;;;;;8.05;2.42;;;;;;;;;;10437508;28;20826;-72
2022/06/27 10:11:48;;;;;;;6.22;2.70;;;;;;;;;;10437067;28;20083;-71
2022/06/27 10:16:51;;;;;;;4.63;2.70;;;;;;;;;;10436314;28;20080;-73
2022/06/27 10:21:52;;;;;;;5.13;2.50;;;;;;;;;;10437698;28;20130;-76
2022/06/27 10:26:55;;;;;;;6.50;2.85;;;;;;;;;;10444386;28;20128;-73
2022/06/27 10:31:56;;;;;;;5.97;2.30;;;;;;;;;;10443572;28;20032;-71
2022/06/27 10:37:15;;;;;;;3.30;1.80;;;;;;;;;;10443364;28;20375;-75
2022/06/27 10:42:34;;;;;;;10.07;1.70;;;;;;;;;;10443451;28;20021;-75
2022/06/27 10:47:34;;;;;;;3.30;1.83;;;;;;;;;;10442958;28;20108;-72
2022/06/27 10:52:35;;;;;;;4.38;1.65;;;;;;;;;;10443512;28;20051;-75
2022/06/27 10:57:36;;;;;;;2.30;1.20;;;;;;;;;;10444171;28;20029;-74
2022/06/27 11:02:38;;;;;;;2.67;1.70;;;;;;;;;;10442583;28;20035;-70
2022/06/27 11:07:38;;;;;;;3.05;1.23;;;;;;;;;;10443062;28;20455;-73
2022/06/27 11:12:38;;;;;;;3.00;1.77;;;;;;;;;;10441998;28;20016;-73
2022/06/27 11:17:43;;;;;;;5.75;2.13;;;;;;;;;;10443911;28;20429;-76
2022/06/27 11:22:44;;;;;;;6.70;2.47;;;;;;;;;;10441945;28;20114;-69
2022/06/27 11:27:45;;;;;;;3.33;1.90;;;;;;;;;;10442415;28;20028;-72
2022/06/27 11:32:45;;;;;;;4.57;2.40;;;;;;;;;;10442268;28;20483;-75
2022/06/27 11:37:46;;;;;;;5.30;2.47;;;;;;;;;;10442683;28;20037;-73
2022/06/27 11:42:46;;;;;;;4.90;2.50;;;;;;;;;;10441973;28;20032;-72
2022/06/27 11:47:46;;;;;;;2.42;2.03;;;;;;;;;;10440821;28;20013;-74
2022/06/27 11:52:48;;;;;;;3.60;2.57;;;;;;;;;;10441813;28;20029;-75
2022/06/27 11:57:55;;;;;;;5.50;2.72;;;;;;;;;;10440051;28;20133;-75
2022/06/27 12:02:59;;;;;;;4.63;2.60;;;;;;;;;;10441044;28;20099;-73
2022/06/27 12:08:01;;;;;;;5.05;2.78;;;;;;;;;;10440534;28;20078;-69
2022/06/27 12:13:02;;;;;;;4.43;2.30;;;;;;;;;;10441404;28;20017;-73
2022/06/27 12:18:03;;;;;;;5.05;3.83;;;;;;;;;;10439829;28;20020;-70
2022/06/27 12:23:03;;;;;;;4.68;2.90;;;;;;;;;;10440809;28;20078;-74
2022/06/27 12:28:05;;;;;;;6.30;2.70;;;;;;;;;;10440628;28;20033;-73
2022/06/27 12:33:06;;;;;;;14.32;2.50;;;;;;;;;;10439044;28;20044;-74
2022/06/27 12:38:07;;;;;;;4.53;2.63;;;;;;;;;;10439129;28;20032;-74
2022/06/27 12:43:07;;;;;;;5.10;2.33;;;;;;;;;;10439269;28;20086;-71
2022/06/27 12:48:09;;;;;;;8.80;2.53;;;;;;;;;;10438209;28;20012;-69
2022/06/27 12:53:09;;;;;;;3.45;2.63;;;;;;;;;;10438539;28;20056;-74
2022/06/27 12:58:09;;;;;;;5.93;3.30;;;;;;;;;;10438621;28;20140;-74
2022/06/27 13:03:10;;;;;;;10.65;3.55;;;;;;;;;;10439690;28;20036;-71
2022/06/27 13:08:10;;;;;;;7.05;3.30;;;;;;;;;;10438441;28;20017;-75
2022/06/27 13:13:11;;;;;;;4.40;3.43;;;;;;;;;;10438763;28;20029;-77
2022/06/27 13:18:11;;;;;;;3.92;2.80;;;;;;;;;;10438810;28;20493;-74
2022/06/27 13:23:12;;;;;;;5.80;2.73;;;;;;;;;;10438016;28;20029;-74
2022/06/27 13:28:12;;;;;;;3.30;2.97;;;;;;;;;;10458365;23;20141;-74
2022/06/27 13:33:13;;;;;;;4.57;2.50;;;;;;;;;;10422325;28;20534;-71
2022/06/27 13:38:13;;;;;;;6.33;2.50;;;;;;;;;;10421277;28;20027;-73
2022/06/27 13:43:13;;;;;;;3.80;2.57;;;;;;;;;;10421122;28;20023;-72
2022/06/27 13:48:14;;;;;;;6.95;2.75;;;;;;;;;;10453751;28;20100;-78
2022/06/27 13:53:14;;;;;;;2.80;2.28;;;;;;;;;;10420494;28;20028;-73
2022/06/27 13:58:15;;;;;;;3.38;2.40;;;;;;;;;;10426609;28;20123;-76
2022/06/27 14:03:15;;;;;;;8.77;3.08;;;;;;;;;;10421473;28;20479;-73
2022/06/27 14:08:17;;;;;;;7.00;2.47;;;;;;;;;;10442961;28;20040;-71
2022/06/27 14:13:17;;;;;;;6.15;3.03;;;;;;;;;;10445189;28;20024;-78
2022/06/27 14:18:18;;;;;;;3.58;2.58;;;;;;;;;;10444518;28;20055;-70
2022/06/27 14:23:18;;;;;;;2.80;1.93;;;;;;;;;;10444293;28;20037;-75
2022/06/27 14:28:18;;;;;;;7.15;2.42;;;;;;;;;;10444691;28;20049;-75
2022/06/27 14:33:19;;;;;;;5.35;2.40;;;;;;;;;;10443706;28;20033;-74
2022/06/27 14:38:19;;;;;;;8.57;3.85;;;;;;;;;;10445563;28;20529;-76
2022/06/27 14:43:19;;;;;;;4.43;2.47;;;;;;;;;;10443471;28;20089;-70
2022/06/27 14:48:19;;;;;;;5.85;3.50;;;;;;;;;;10427362;28;20028;-77
2022/06/27 14:53:20;;;;;;;2.80;2.50;;;;;;;;;;10443576;28;20032;-74
2022/06/27 14:58:20;;;;;;;3.42;2.38;;;;;;;;;;10442410;28;20029;-70
2022/06/27 15:03:20;;;;;;;5.77;2.70;;;;;;;;;;10443569;28;20115;-75
2022/06/27 15:08:21;;;;;;;4.22;2.90;;;;;;;;;;10442436;28;20025;-77
2022/06/27 15:13:21;;;;;;;5.30;3.15;;;;;;;;;;10441931;28;20066;-71
2022/06/27 15:18:21;;;;;;;2.80;2.50;;;;;;;;;;10442333;28;20021;-76
2022/06/27 15:23:22;;;;;;;4.97;2.70;;;;;;;;;;10441468;28;20483;-78
2022/06/27 15:28:22;;;;;;;4.25;2.28;;;;;;;;;;10443287;28;20057;-75
2022/06/27 15:33:22;;;;;;;14.88;4.38;;;;;;;;;;10442677;28;20064;-71
2022/06/27 15:38:22;;;;;;;7.25;3.05;;;;;;;;;;10441307;28;20021;-75
2022/06/27 15:43:23;;;;;;;6.82;3.53;;;;;;;;;;10443169;28;20450;-74
2022/06/27 15:48:24;;;;;;;3.28;2.63;;;;;;;;;;10441119;28;20528;-71
2022/06/27 15:53:24;;;;;;;5.57;3.38;;;;;;;;;;10440806;28;20025;-74
2022/06/27 15:58:24;;;;;;;5.13;2.72;;;;;;;;;;10441300;28;20059;-71
2022/06/27 16:03:25;;;;;;;3.90;2.50;;;;;;;;;;10439976;28;20013;-76
2022/06/27 16:08:25;;;;;;;4.43;2.67;;;;;;;;;;10440365;28;20040;-74
2022/06/27 16:13:25;;;;;;;5.50;2.60;;;;;;;;;;10440157;28;20094;-68
2022/06/27 16:18:25;;;;;;;5.33;2.73;;;;;;;;;;10439686;28;20041;-74
2022/06/27 16:23:26;;;;;;;4.30;2.90;;;;;;;;;;10438451;28;20597;-74
2022/06/27 16:28:26;;;;;;;3.45;2.70;;;;;;;;;;10439306;28;20072;-70
2022/06/27 16:33:28;;;;;;;6.50;2.92;;;;;;;;;;10439333;28;20033;-76
2022/06/27 16:38:30;;;;;;;4.18;2.75;;;;;;;;;;10440052;28;20544;-73
2022/06/27 16:43:30;;;;;;;6.65;2.53;;;;;;;;;;10453525;28;20025;-72
2022/06/27 16:48:31;;;;;;;4.23;2.93;;;;;;;;;;10441033;28;20471;-75
2022/06/27 16:53:32;;;;;;;7.78;3.17;;;;;;;;;;10438307;28;20021;-74
2022/06/27 16:58:33;;;;;;;4.13;3.10;;;;;;;;;;10438258;28;20025;-72
2022/06/27 17:03:33;;;;;;;7.18;3.35;;;;;;;;;;10438434;28;20037;-74
2022/06/27 17:08:34;;;;;;;11.77;3.38;;;;;;;;;;10438027;28;20380;-76
2022/06/27 17:13:35;;;;;;;3.20;2.90;;;;;;;;;;10437922;28;20033;-68
2022/06/27 17:18:35;;;;;;;4.37;3.37;;;;;;;;;;10437721;28;20021;-76
2022/06/27 17:23:35;;;;;;;4.40;2.70;;;;;;;;;;10437136;28;20537;-69
2022/06/27 17:28:36;;;;;;;5.32;2.60;;;;;;;;;;10437255;28;20194;-76
2022/06/27 17:33:36;;;;;;;6.70;2.90;;;;;;;;;;10437465;28;20025;-75
2022/06/27 17:38:36;;;;;;;4.88;3.60;;;;;;;;;;10438000;28;20505;-75
2022/06/27 17:43:38;;;;;;;6.60;3.10;;;;;;;;;;10439250;28;20211;-75
2022/06/27 17:48:38;;;;;;;5.13;3.10;;;;;;;;;;10436427;28;20253;-74
2022/06/27 17:53:39;;;;;;;3.60;3.10;;;;;;;;;;10435852;28;20029;-74
2022/06/27 17:58:39;;;;;;;5.90;3.65;;;;;;;;;;10437532;28;20032;-75
2022/06/27 18:03:39;;;;;;;5.47;3.53;;;;;;;;;;10436103;28;20036;-73
2022/06/27 18:08:39;;;;;;;16.40;4.50;;;;;;;;;;10433122;28;20029;-72
2022/06/27 18:13:40;;;;;;;8.18;5.00;;;;;;;;;;10427864;28;20041;-71
2022/06/27 18:18:40;;;;;;;11.18;3.78;;;;;;;;;;10418690;28;20033;-74
2022/06/27 18:23:40;;;;;;;5.55;3.58;;;;;;;;;;10423415;28;20033;-70
2022/06/27 18:28:44;;;;;;;7.47;3.97;;;;;;;;;;10424139;28;20046;-76
2022/06/27 18:33:44;;;;;;;7.78;4.05;;;;;;;;;;10426574;28;20033;-70
2022/06/27 18:38:44;;;;;;;5.22;3.70;;;;;;;;;;10413209;28;20469;-74
2022/06/27 18:43:45;;;;;;;8.05;4.00;;;;;;;;;;10429259;28;20469;-75
2022/06/27 18:48:45;;;;;;;7.20;4.50;;;;;;;;;;10433183;28;20017;-77
2022/06/27 18:53:46;;;;;;;9.52;5.35;;;;;;;;;;10432371;28;20037;-76
2022/06/27 18:58:46;;;;;;;9.43;4.43;;;;;;;;;;10434622;28;20039;-74
2022/06/27 19:03:47;;;;;;;6.25;3.70;;;;;;;;;;10435251;28;20035;-71
2022/06/27 19:08:47;;;;;;;6.82;4.78;;;;;;;;;;10434953;28;20051;-72
2022/06/27 19:13:48;;;;;;;5.80;3.92;;;;;;;;;;10439826;28;20033;-71
2022/06/27 19:18:48;;;;;;;7.38;4.25;;;;;;;;;;10437915;28;20013;-75
2022/06/27 19:23:48;;;;;;;7.55;4.30;;;;;;;;;;10438835;28;20049;-74
2022/06/27 19:28:49;;;;;;;10.07;5.38;;;;;;;;;;10437607;28;20819;-72
2022/06/27 19:33:49;;;;;;;14.00;5.60;;;;;;;;;;10437884;28;20063;-76
2022/06/27 19:38:50;;;;;;;7.90;4.57;;;;;;;;;;10439118;28;20431;-74
2022/06/27 19:43:50;;;;;;;11.25;5.18;;;;;;;;;;10437579;28;20760;-76
2022/06/27 19:48:50;;;;;;;9.10;5.70;;;;;;;;;;10435683;28;20451;-75
2022/06/27 19:53:50;;;;;;;9.15;5.32;;;;;;;;;;10438454;28;20028;-71
2022/06/27 19:58:51;;;;;;;13.10;5.25;;;;;;;;;;10438448;28;20517;-76
2022/06/27 20:03:51;;;;;;;8.68;4.60;;;;;;;;;;10436284;28;20025;-73
2022/06/27 20:08:52;;;;;;;8.90;4.63;;;;;;;;;;10436584;28;20031;-71
2022/06/27 20:13:57;;;;;;;11.00;5.55;;;;;;;;;;10436219;28;20118;-74
2022/06/27 20:18:58;;;;;;;10.52;5.78;;;;;;;;;;10436507;28;20021;-75
2022/06/27 20:23:58;;;;;;;7.75;5.18;;;;;;;;;;10435681;28;20024;-74
2022/06/27 20:28:58;;;;;;;8.30;5.10;;;;;;;;;;10435589;28;20470;-73
2022/06/27 20:33:59;;;;;;;9.83;5.00;;;;;;;;;;10435255;28;20036;-73
2022/06/27 20:38:59;;;;;;;5.63;4.25;;;;;;;;;;10435805;28;20051;-77
2022/06/27 20:43:59;;;;;;;8.70;5.33;;;;;;;;;;10434824;28;20028;-75
2022/06/27 20:49:00;;;;;;;8.25;5.00;;;;;;;;;;10434740;28;20057;-76
2022/06/27 20:54:01;;;;;;;8.77;4.78;;;;;;;;;;10434380;28;20032;-71
2022/06/27 20:59:02;;;;;;;9.27;4.68;;;;;;;;;;10407272;28;20021;-75
2022/06/27 21:04:02;;;;;;;6.43;4.37;;;;;;;;;;10434706;28;20361;-70
2022/06/27 21:14:27;;;;;;;7.20;4.30;;;;;;;;;;10434430;28;20263;-71
2022/06/27 21:19:27;;;;;;;10.80;5.68;;;;;;;;;;10449359;28;20430;-74
2022/06/27 21:24:27;;;;;;;6.57;5.10;;;;;;;;;;10456940;22;20032;-74
2022/06/27 21:29:29;;;;;;;11.43;5.03;;;;;;;;;;10432703;28;20047;-68
2022/06/27 21:34:30;;;;;;;5.68;4.60;;;;;;;;;;10430631;28;20531;-74
2022/06/27 21:39:30;;;;;;;6.55;4.68;;;;;;;;;;10432388;28;20037;-69
2022/06/27 21:44:30;;;;;;;7.20;5.07;;;;;;;;;;10433033;28;20442;-75
2022/06/27 21:49:31;;;;;;;7.20;4.90;;;;;;;;;;10431062;28;20053;-74
2022/06/27 21:54:31;;;;;;;9.02;5.40;;;;;;;;;;10431923;28;20031;-76
2022/06/27 21:59:31;;;;;;;7.55;5.43;;;;;;;;;;10430448;28;20029;-75
2022/06/27 22:04:32;;;;;;;8.57;5.75;;;;;;;;;;10389630;28;20100;-74
2022/06/27 22:09:32;;;;;;;6.30;5.10;;;;;;;;;;10405084;28;20045;-73
2022/06/27 22:14:32;;;;;;;7.63;5.07;;;;;;;;;;10389923;28;20171;-74
2022/06/27 22:19:32;;;;;;;11.30;6.70;;;;;;;;;;10396686;28;20037;-74
2022/06/27 22:24:32;;;;;;;11.15;5.45;;;;;;;;;;10406489;28;20025;-74
2022/06/27 22:29:33;;;;;;;7.15;5.82;;;;;;;;;;10397641;28;20167;-71
2022/06/27 22:34:33;;;;;;;7.37;5.60;;;;;;;;;;10403668;28;20025;-74
2022/06/27 22:39:33;;;;;;;8.95;5.95;;;;;;;;;;10402630;28;20029;-75
2022/06/27 22:44:37;;;;;;;9.77;6.43;;;;;;;;;;10397263;28;20033;-73
2022/06/27 22:49:37;;;;;;;10.65;7.28;;;;;;;;;;10394425;28;20060;-72
2022/06/27 22:54:38;;;;;;;9.83;6.60;;;;;;;;;;10381127;28;20359;-72
2022/06/27 22:59:38;;;;;;;8.35;6.32;;;;;;;;;;10397674;28;20023;-74
2022/06/27 23:04:39;;;;;;;10.70;6.18;;;;;;;;;;10410826;28;20033;-75
2022/06/27 23:09:39;;;;;;;15.48;8.30;;;;;;;;;;10406608;28;20036;-75
2022/06/27 23:14:39;;;;;;;10.93;7.28;;;;;;;;;;10396094;28;20025;-74
2022/06/27 23:19:39;;;;;;;9.00;7.40;;;;;;;;;;10397031;28;20028;-75
2022/06/27 23:24:40;;;;;;;10.05;6.55;;;;;;;;;;10400134;28;20040;-77
2022/06/27 23:29:40;;;;;;;11.18;6.72;;;;;;;;;;10399828;28;20036;-74
2022/06/27 23:34:40;;;;;;;9.27;6.55;;;;;;;;;;10401491;28;20029;-74
2022/06/27 23:39:41;;;;;;;13.32;7.05;;;;;;;;;;10405975;28;20030;-70
2022/06/27 23:44:42;;;;;;;11.68;6.72;;;;;;;;;;10417151;28;20152;-76
2022/06/27 23:49:42;;;;;;;8.63;6.10;;;;;;;;;;10404225;28;20023;-74
2022/06/27 23:54:43;;;;;;;11.48;6.72;;;;;;;;;;10410314;28;20030;-74
2022/06/27 23:59:43;;;;;;;8.97;6.80;;;;;;;;;;10410357;28;20614;-69
